sensor_id;sensor_type;location;lat;lon;timestamp;pressure;altitude;pressure_sealevel;temperature;humidity
63009;BME280;49099;28.428;-16.488;2023-04-22T00:01:47;98279.38;;;20.43;54.53
63009;BME280;49099;28.428;-16.488;2023-04-22T00:04:14;98279.25;;;20.40;54.55
63009;BME280;49099;28.428;-16.488;2023-04-22T00:06:42;98269.47;;;20.35;54.26
63009;BME280;49099;28.428;-16.488;2023-04-22T00:09:11;98277.91;;;20.34;54.76
63009;BME280;49099;28.428;-16.488;2023-04-22T00:11:38;98278.09;;;20.28;54.50
63009;BME280;49099;28.428;-16.488;2023-04-22T00:14:05;98267.75;;;20.18;54.60
63009;BME280;49099;28.428;-16.488;2023-04-22T00:16:33;98267.75;;;20.18;54.42
63009;BME280;49099;28.428;-16.488;2023-04-22T00:19:00;98262.56;;;20.13;54.48
63009;BME280;49099;28.428;-16.488;2023-04-22T00:21:27;98255.94;;;20.11;54.03
63009;BME280;49099;28.428;-16.488;2023-04-22T00:23:54;98265.25;;;20.13;53.51
63009;BME280;49099;28.428;-16.488;2023-04-22T00:26:22;98258.50;;;20.07;53.17
63009;BME280;49099;28.428;-16.488;2023-04-22T00:28:49;98260.75;;;20.05;53.21
63009;BME280;49099;28.428;-16.488;2023-04-22T00:31:16;98260.63;;;20.01;53.37
63009;BME280;49099;28.428;-16.488;2023-04-22T00:33:43;98264.34;;;20.09;53.47
63009;BME280;49099;28.428;-16.488;2023-04-22T00:36:11;98274.00;;;20.10;52.78
63009;BME280;49099;28.428;-16.488;2023-04-22T00:38:38;98261.97;;;20.08;52.47
63009;BME280;49099;28.428;-16.488;2023-04-22T00:41:06;98253.53;;;19.97;52.86
63009;BME280;49099;28.428;-16.488;2023-04-22T00:43:34;98263.44;;;20.05;52.56
63009;BME280;49099;28.428;-16.488;2023-04-22T00:46:01;98254.31;;;19.97;53.08
63009;BME280;49099;28.428;-16.488;2023-04-22T00:48:29;98253.97;;;19.99;53.10
63009;BME280;49099;28.428;-16.488;2023-04-22T00:50:56;98254.47;;;20.01;53.82
63009;BME280;49099;28.428;-16.488;2023-04-22T00:53:24;98261.53;;;20.06;53.69
63009;BME280;49099;28.428;-16.488;2023-04-22T00:55:51;98261.97;;;20.08;53.48
63009;BME280;49099;28.428;-16.488;2023-04-22T00:58:20;98261.88;;;20.04;53.49
63009;BME280;49099;28.428;-16.488;2023-04-22T01:00:47;98263.56;;;20.09;53.59
63009;BME280;49099;28.428;-16.488;2023-04-22T01:03:14;98258.50;;;20.07;53.07
63009;BME280;49099;28.428;-16.488;2023-04-22T01:05:42;98254.91;;;20.03;52.46
63009;BME280;49099;28.428;-16.488;2023-04-22T01:08:09;98247.69;;;19.95;52.80
63009;BME280;49099;28.428;-16.488;2023-04-22T01:10:37;98254.66;;;19.96;52.84
63009;BME280;49099;28.428;-16.488;2023-04-22T01:13:04;98247.38;;;19.96;53.18
63009;BME280;49099;28.428;-16.488;2023-04-22T01:15:31;98245.22;;;19.90;52.56
63009;BME280;49099;28.428;-16.488;2023-04-22T01:17:59;98247.69;;;19.95;53.38
63009;BME280;49099;28.428;-16.488;2023-04-22T01:20:30;98245.78;;;19.95;53.00
63009;BME280;49099;28.428;-16.488;2023-04-22T01:23:01;98243.88;;;19.96;52.53
63009;BME280;49099;28.428;-16.488;2023-04-22T01:25:30;98247.03;;;19.98;51.87
63009;BME280;49099;28.428;-16.488;2023-04-22T01:27:57;98244.13;;;20.03;51.92
63009;BME280;49099;28.428;-16.488;2023-04-22T01:30:24;98244.25;;;20.07;52.28
63009;BME280;49099;28.428;-16.488;2023-04-22T01:32:51;98238.31;;;20.01;51.98
63009;BME280;49099;28.428;-16.488;2023-04-22T01:35:19;98228.19;;;19.98;51.80
63009;BME280;49099;28.428;-16.488;2023-04-22T01:37:46;98237.53;;;20.00;51.93
63009;BME280;49099;28.428;-16.488;2023-04-22T01:40:15;98211.53;;;19.84;51.92
63009;BME280;49099;28.428;-16.488;2023-04-22T01:42:45;98227.75;;;19.96;51.78
63009;BME280;49099;28.428;-16.488;2023-04-22T01:45:12;98228.66;;;20.00;51.43
63009;BME280;49099;28.428;-16.488;2023-04-22T01:47:43;98220.59;;;20.00;51.75
63009;BME280;49099;28.428;-16.488;2023-04-22T01:50:10;98234.28;;;20.07;52.06
63009;BME280;49099;28.428;-16.488;2023-04-22T01:52:37;98232.69;;;20.06;51.57
63009;BME280;49099;28.428;-16.488;2023-04-22T01:55:05;98221.16;;;20.06;52.11
63009;BME280;49099;28.428;-16.488;2023-04-22T01:57:32;98228.66;;;20.00;52.12
63009;BME280;49099;28.428;-16.488;2023-04-22T02:00:00;98222.69;;;19.94;52.53
63009;BME280;49099;28.428;-16.488;2023-04-22T02:02:27;98215.16;;;19.88;52.56
63009;BME280;49099;28.428;-16.488;2023-04-22T02:04:54;98225.25;;;19.91;52.34
63009;BME280;49099;28.428;-16.488;2023-04-22T02:07:21;98219.56;;;19.92;52.81
63009;BME280;49099;28.428;-16.488;2023-04-22T02:09:49;98230.09;;;19.97;52.74
63009;BME280;49099;28.428;-16.488;2023-04-22T02:12:16;98221.44;;;19.92;52.32
63009;BME280;49099;28.428;-16.488;2023-04-22T02:14:43;98220.78;;;19.95;52.22
63009;BME280;49099;28.428;-16.488;2023-04-22T02:17:10;98213.69;;;19.90;51.66
63009;BME280;49099;28.428;-16.488;2023-04-22T02:19:37;98213.84;;;19.94;51.64
63009;BME280;49099;28.428;-16.488;2023-04-22T02:22:05;98219.56;;;19.92;50.81
63009;BME280;49099;28.428;-16.488;2023-04-22T02:24:32;98222.09;;;19.89;51.53
63009;BME280;49099;28.428;-16.488;2023-04-22T02:26:59;98219.41;;;19.89;51.83
63009;BME280;49099;28.428;-16.488;2023-04-22T02:29:27;98222.88;;;19.89;52.00
63009;BME280;49099;28.428;-16.488;2023-04-22T02:31:54;98209.78;;;19.88;51.67
63009;BME280;49099;28.428;-16.488;2023-04-22T02:34:21;98212.91;;;19.90;52.21
63009;BME280;49099;28.428;-16.488;2023-04-22T02:36:48;98207.53;;;19.90;52.02
63009;BME280;49099;28.428;-16.488;2023-04-22T02:39:15;98206.63;;;19.86;51.91
63009;BME280;49099;28.428;-16.488;2023-04-22T02:41:43;98206.63;;;19.86;51.37
63009;BME280;49099;28.428;-16.488;2023-04-22T02:44:10;98202.81;;;19.87;51.73
63009;BME280;49099;28.428;-16.488;2023-04-22T02:46:37;98195.09;;;19.85;51.38
63009;BME280;49099;28.428;-16.488;2023-04-22T02:49:04;98200.13;;;19.87;50.57
63009;BME280;49099;28.428;-16.488;2023-04-22T02:51:31;98201.88;;;19.83;50.90
63009;BME280;49099;28.428;-16.488;2023-04-22T02:53:58;98192.91;;;19.79;51.47
63009;BME280;49099;28.428;-16.488;2023-04-22T02:56:26;98198.41;;;19.82;51.67
63009;BME280;49099;28.428;-16.488;2023-04-22T02:58:53;98200.31;;;19.82;52.64
63009;BME280;49099;28.428;-16.488;2023-04-22T03:01:20;98195.47;;;19.75;52.80
63009;BME280;49099;28.428;-16.488;2023-04-22T03:03:47;98197.03;;;19.76;53.17
63009;BME280;49099;28.428;-16.488;2023-04-22T03:06:15;98182.34;;;19.73;52.92
63009;BME280;49099;28.428;-16.488;2023-04-22T03:08:43;98181.91;;;19.71;53.40
63009;BME280;49099;28.428;-16.488;2023-04-22T03:11:10;98185.25;;;19.68;53.37
63009;BME280;49099;28.428;-16.488;2023-04-22T03:13:37;98179.41;;;19.66;53.37
63009;BME280;49099;28.428;-16.488;2023-04-22T03:16:05;98176.28;;;19.64;53.35
63009;BME280;49099;28.428;-16.488;2023-04-22T03:18:33;98182.09;;;19.66;52.88
63009;BME280;49099;28.428;-16.488;2023-04-22T03:21:00;98178.28;;;19.67;53.31
63009;BME280;49099;28.428;-16.488;2023-04-22T03:23:27;98169.66;;;19.62;53.09
63009;BME280;49099;28.428;-16.488;2023-04-22T03:25:54;98176.72;;;19.66;53.11
63009;BME280;49099;28.428;-16.488;2023-04-22T03:28:21;98182.09;;;19.66;52.88
63009;BME280;49099;28.428;-16.488;2023-04-22T03:30:48;98174.03;;;19.66;53.08
63009;BME280;49099;28.428;-16.488;2023-04-22T03:33:16;98180.09;;;19.63;52.80
63009;BME280;49099;28.428;-16.488;2023-04-22T03:35:47;98174.25;;;19.61;53.48
63009;BME280;49099;28.428;-16.488;2023-04-22T03:38:15;98173.78;;;19.59;53.76
63009;BME280;49099;28.428;-16.488;2023-04-22T03:40:42;98174.25;;;19.61;53.67
63009;BME280;49099;28.428;-16.488;2023-04-22T03:43:09;98152.44;;;19.54;53.78
63009;BME280;49099;28.428;-16.488;2023-04-22T03:45:36;98160.97;;;19.56;53.37
63009;BME280;49099;28.428;-16.488;2023-04-22T03:48:04;98165.91;;;19.54;52.52
63009;BME280;49099;28.428;-16.488;2023-04-22T03:50:32;98151.06;;;19.48;52.86
63009;BME280;49099;28.428;-16.488;2023-04-22T03:52:59;98162.28;;;19.50;53.48
63009;BME280;49099;28.428;-16.488;2023-04-22T03:55:26;98149.84;;;19.45;53.56
63009;BME280;49099;28.428;-16.488;2023-04-22T03:57:53;98154.22;;;19.50;53.17
63009;BME280;49099;28.428;-16.488;2023-04-22T04:00:21;98151.53;;;19.50;53.50
63009;BME280;49099;28.428;-16.488;2023-04-22T04:02:48;98153.09;;;19.51;53.19
63009;BME280;49099;28.428;-16.488;2023-04-22T04:05:15;98142.34;;;19.51;53.19
63009;BME280;49099;28.428;-16.488;2023-04-22T04:07:43;98143.13;;;19.52;53.15
63009;BME280;49099;28.428;-16.488;2023-04-22T04:10:10;98152.44;;;19.54;52.75
63009;BME280;49099;28.428;-16.488;2023-04-22T04:12:37;98151.81;;;19.57;52.99
63009;BME280;49099;28.428;-16.488;2023-04-22T04:15:05;98150.19;;;19.56;52.09
63009;BME280;49099;28.428;-16.488;2023-04-22T04:17:32;98143.91;;;19.52;52.21
63009;BME280;49099;28.428;-16.488;2023-04-22T04:20:00;98153.53;;;19.53;52.13
63009;BME280;49099;28.428;-16.488;2023-04-22T04:22:27;98138.84;;;19.51;51.81
63009;BME280;49099;28.428;-16.488;2023-04-22T04:24:54;98141.69;;;19.54;51.47
63009;BME280;49099;28.428;-16.488;2023-04-22T04:27:22;98142.94;;;19.57;51.55
63009;BME280;49099;28.428;-16.488;2023-04-22T04:29:49;98143.91;;;19.52;51.70
63009;BME280;49099;28.428;-16.488;2023-04-22T04:32:18;98146.28;;;19.54;52.01
63009;BME280;49099;28.428;-16.488;2023-04-22T04:34:45;98136.94;;;19.51;52.18
63009;BME280;49099;28.428;-16.488;2023-04-22T04:37:12;98138.06;;;19.50;52.76
63009;BME280;49099;28.428;-16.488;2023-04-22T04:39:40;98141.88;;;19.49;52.24
63009;BME280;49099;28.428;-16.488;2023-04-22T04:42:08;98136.94;;;19.51;52.29
63009;BME280;49099;28.428;-16.488;2023-04-22T04:44:35;98139.59;;;19.60;52.45
63009;BME280;49099;28.428;-16.488;2023-04-22T04:47:02;98117.09;;;19.43;52.42
63009;BME280;49099;28.428;-16.488;2023-04-22T04:49:31;98148.44;;;19.60;52.83
63009;BME280;49099;28.428;-16.488;2023-04-22T04:51:58;98133.28;;;19.56;53.47
63009;BME280;49099;28.428;-16.488;2023-04-22T04:54:25;98157.28;;;19.61;53.35
63009;BME280;49099;28.428;-16.488;2023-04-22T04:56:52;98157.19;;;19.57;53.71
63009;BME280;49099;28.428;-16.488;2023-04-22T04:59:20;98157.81;;;19.54;54.17
63009;BME280;49099;28.428;-16.488;2023-04-22T05:01:47;98169.66;;;19.62;53.93
63009;BME280;49099;28.428;-16.488;2023-04-22T05:04:14;98158.09;;;19.61;54.08
63009;BME280;49099;28.428;-16.488;2023-04-22T05:06:42;98154.31;;;19.62;53.38
63009;BME280;49099;28.428;-16.488;2023-04-22T05:09:09;98164.63;;;19.72;53.94
63009;BME280;49099;28.428;-16.488;2023-04-22T05:11:36;98166.88;;;19.70;53.69
63009;BME280;49099;28.428;-16.488;2023-04-22T05:14:04;98167.53;;;19.67;54.05
63009;BME280;49099;28.428;-16.488;2023-04-22T05:16:32;98153.63;;;19.65;54.09
63009;BME280;49099;28.428;-16.488;2023-04-22T05:18:59;98151.13;;;19.60;53.74
63009;BME280;49099;28.428;-16.488;2023-04-22T05:21:26;98154.94;;;19.59;54.22
63009;BME280;49099;28.428;-16.488;2023-04-22T05:23:54;98151.66;;;19.54;54.19
63009;BME280;49099;28.428;-16.488;2023-04-22T05:26:21;98154.88;;;19.47;54.40
63009;BME280;49099;28.428;-16.488;2023-04-22T05:28:48;98162.03;;;19.43;54.51
63009;BME280;49099;28.428;-16.488;2023-04-22T05:31:15;98168.66;;;19.45;54.60
63009;BME280;49099;28.428;-16.488;2023-04-22T05:33:42;98168.19;;;19.43;54.80
63009;BME280;49099;28.428;-16.488;2023-04-22T05:36:10;98164.53;;;19.48;54.85
63009;BME280;49099;28.428;-16.488;2023-04-22T05:38:37;98162.28;;;19.50;54.72
63009;BME280;49099;28.428;-16.488;2023-04-22T05:41:04;98173.31;;;19.57;54.79
63009;BME280;49099;28.428;-16.488;2023-04-22T05:43:31;98174.13;;;19.58;54.89
63009;BME280;49099;28.428;-16.488;2023-04-22T05:45:58;98169.84;;;19.57;54.74
63009;BME280;49099;28.428;-16.488;2023-04-22T05:48:26;98178.72;;;19.57;54.86
63009;BME280;49099;28.428;-16.488;2023-04-22T05:50:53;98179.34;;;19.54;55.09
63009;BME280;49099;28.428;-16.488;2023-04-22T05:53:20;98169.91;;;19.48;55.32
63009;BME280;49099;28.428;-16.488;2023-04-22T05:55:47;98174.59;;;19.51;54.82
63009;BME280;49099;28.428;-16.488;2023-04-22T05:58:14;98178.56;;;19.54;54.78
63009;BME280;49099;28.428;-16.488;2023-04-22T06:00:41;98170.53;;;19.45;55.05
63009;BME280;49099;28.428;-16.488;2023-04-22T06:03:09;98163.59;;;19.44;54.63
63009;BME280;49099;28.428;-16.488;2023-04-22T06:05:36;98171.34;;;19.45;54.61
63009;BME280;49099;28.428;-16.488;2023-04-22T06:08:03;98172.13;;;19.46;55.18
63009;BME280;49099;28.428;-16.488;2023-04-22T06:10:31;98172.59;;;19.48;54.76
63009;BME280;49099;28.428;-16.488;2023-04-22T06:12:58;98169.75;;;19.44;54.88
63009;BME280;49099;28.428;-16.488;2023-04-22T06:15:25;98167.22;;;19.48;54.18
63009;BME280;49099;28.428;-16.488;2023-04-22T06:17:52;98167.53;;;19.46;54.34
63009;BME280;49099;28.428;-16.488;2023-04-22T06:20:20;98179.53;;;19.49;53.88
63009;BME280;49099;28.428;-16.488;2023-04-22T06:22:47;98177.63;;;19.49;54.59
63009;BME280;49099;28.428;-16.488;2023-04-22T06:25:14;98170.00;;;19.52;54.17
63009;BME280;49099;28.428;-16.488;2023-04-22T06:27:41;98171.09;;;19.59;54.03
63009;BME280;49099;28.428;-16.488;2023-04-22T06:30:09;98169.50;;;19.58;54.30
63009;BME280;49099;28.428;-16.488;2023-04-22T06:32:37;98178.72;;;19.57;54.11
63009;BME280;49099;28.428;-16.488;2023-04-22T06:35:04;98178.22;;;19.55;54.52
63009;BME280;49099;28.428;-16.488;2023-04-22T06:37:31;98169.22;;;19.51;54.55
63009;BME280;49099;28.428;-16.488;2023-04-22T06:39:59;98181.44;;;19.48;54.86
63009;BME280;49099;28.428;-16.488;2023-04-22T06:42:26;98175.28;;;19.48;54.86
63009;BME280;49099;28.428;-16.488;2023-04-22T06:44:53;98177.97;;;19.48;54.94
63009;BME280;49099;28.428;-16.488;2023-04-22T06:47:20;98177.91;;;19.57;54.26
63009;BME280;49099;28.428;-16.488;2023-04-22T06:49:47;98183.56;;;19.64;54.19
63009;BME280;49099;28.428;-16.488;2023-04-22T06:52:16;98179.34;;;19.54;53.73
63009;BME280;49099;28.428;-16.488;2023-04-22T06:54:43;98189.00;;;19.55;54.38
63009;BME280;49099;28.428;-16.488;2023-04-22T06:57:10;98184.47;;;19.47;54.16
63009;BME280;49099;28.428;-16.488;2023-04-22T06:59:37;98191.41;;;19.48;54.07
63009;BME280;49099;28.428;-16.488;2023-04-22T07:02:05;98185.25;;;19.47;54.06
63009;BME280;49099;28.428;-16.488;2023-04-22T07:04:33;98190.75;;;19.51;54.03
63009;BME280;49099;28.428;-16.488;2023-04-22T07:07:00;98200.09;;;19.54;53.84
63009;BME280;49099;28.428;-16.488;2023-04-22T07:09:27;98203.38;;;19.59;54.24
63009;BME280;49099;28.428;-16.488;2023-04-22T07:11:54;98207.63;;;19.60;54.06
63009;BME280;49099;28.428;-16.488;2023-04-22T07:14:24;98209.53;;;19.60;54.07
63009;BME280;49099;28.428;-16.488;2023-04-22T07:16:53;98211.59;;;19.63;54.20
63009;BME280;49099;28.428;-16.488;2023-04-22T07:19:20;98214.28;;;19.63;54.38
63009;BME280;49099;28.428;-16.488;2023-04-22T07:21:47;98208.56;;;19.64;53.85
63009;BME280;49099;28.428;-16.488;2023-04-22T07:24:15;98205.19;;;19.67;54.19
63009;BME280;49099;28.428;-16.488;2023-04-22T07:26:43;98216.22;;;19.74;54.09
63009;BME280;49099;28.428;-16.488;2023-04-22T07:29:10;98219.34;;;19.76;53.86
63009;BME280;49099;28.428;-16.488;2023-04-22T07:31:38;98224.09;;;19.80;54.12
63009;BME280;49099;28.428;-16.488;2023-04-22T07:34:06;98226.13;;;19.83;53.83
63009;BME280;49099;28.428;-16.488;2023-04-22T07:36:33;98221.84;;;19.82;54.47
63009;BME280;49099;28.428;-16.488;2023-04-22T07:39:00;98237.34;;;19.85;54.53
63009;BME280;49099;28.428;-16.488;2023-04-22T07:41:27;98226.13;;;19.83;54.19
63009;BME280;49099;28.428;-16.488;2023-04-22T07:43:55;98227.69;;;19.84;54.12
63009;BME280;49099;28.428;-16.488;2023-04-22T07:46:22;98228.16;;;19.86;54.17
63009;BME280;49099;28.428;-16.488;2023-04-22T07:48:49;98228.94;;;19.86;53.99
63009;BME280;49099;28.428;-16.488;2023-04-22T07:51:17;98240.75;;;19.94;54.03
63009;BME280;49099;28.428;-16.488;2023-04-22T07:54:22;98238.50;;;19.96;53.76
63009;BME280;49099;28.428;-16.488;2023-04-22T07:56:59;98236.50;;;19.93;54.22
63009;BME280;49099;28.428;-16.488;2023-04-22T07:59:27;98235.47;;;19.97;54.47
63009;BME280;49099;28.428;-16.488;2023-04-22T08:01:54;98232.69;;;20.06;54.52
63009;BME280;49099;28.428;-16.488;2023-04-22T08:04:22;98235.88;;;20.08;55.68
63009;BME280;49099;28.428;-16.488;2023-04-22T08:06:49;98232.94;;;20.13;55.40
63009;BME280;49099;28.428;-16.488;2023-04-22T08:09:16;98244.63;;;20.17;55.36
63009;BME280;49099;28.428;-16.488;2023-04-22T08:11:43;98241.72;;;20.22;56.03
63009;BME280;49099;28.428;-16.488;2023-04-22T08:14:11;98239.50;;;20.24;56.65
63009;BME280;49099;28.428;-16.488;2023-04-22T08:16:38;98248.91;;;20.30;56.64
63009;BME280;49099;28.428;-16.488;2023-04-22T08:19:06;98240.53;;;20.32;56.69
63009;BME280;49099;28.428;-16.488;2023-04-22T08:21:33;98238.84;;;20.40;56.36
63009;BME280;49099;28.428;-16.488;2023-04-22T08:24:02;98243.25;;;20.44;56.43
63009;BME280;49099;28.428;-16.488;2023-04-22T08:26:30;98247.66;;;20.49;56.54
63009;BME280;49099;28.428;-16.488;2023-04-22T08:28:57;98249.81;;;20.55;56.59
63009;BME280;49099;28.428;-16.488;2023-04-22T08:31:24;98246.53;;;20.62;56.89
63009;BME280;49099;28.428;-16.488;2023-04-22T08:33:51;98248.56;;;20.65;57.09
63009;BME280;49099;28.428;-16.488;2023-04-22T08:36:18;98248.66;;;20.69;57.28
63009;BME280;49099;28.428;-16.488;2023-04-22T08:38:48;98245.88;;;20.77;56.56
63009;BME280;49099;28.428;-16.488;2023-04-22T08:41:17;98240.25;;;20.82;56.15
63009;BME280;49099;28.428;-16.488;2023-04-22T08:43:45;98251.72;;;20.92;55.55
63009;BME280;49099;28.428;-16.488;2023-04-22T08:46:12;98230.16;;;20.79;55.31
63009;BME280;49099;28.428;-16.488;2023-04-22T08:48:41;98230.41;;;20.86;55.22
63009;BME280;49099;28.428;-16.488;2023-04-22T08:51:09;98227.44;;;20.92;55.07
63009;BME280;49099;28.428;-16.488;2023-04-22T08:53:36;98241.38;;;21.06;54.61
63009;BME280;49099;28.428;-16.488;2023-04-22T08:56:04;98236.19;;;21.13;54.19
63009;BME280;49099;28.428;-16.488;2023-04-22T08:58:33;98231.72;;;21.17;54.25
63009;BME280;49099;28.428;-16.488;2023-04-22T09:01:02;98232.81;;;21.16;54.41
63009;BME280;49099;28.428;-16.488;2023-04-22T09:03:29;98234.94;;;21.23;54.16
63009;BME280;49099;28.428;-16.488;2023-04-22T09:05:58;98236.31;;;21.41;53.92
63009;BME280;49099;28.428;-16.488;2023-04-22T09:08:27;98227.22;;;21.33;54.10
63009;BME280;49099;28.428;-16.488;2023-04-22T09:10:56;98239.22;;;21.36;54.34
63009;BME280;49099;28.428;-16.488;2023-04-22T09:13:27;98229.91;;;21.33;54.75
63009;BME280;49099;28.428;-16.488;2023-04-22T09:15:54;98235.53;;;21.40;54.59
63009;BME280;49099;28.428;-16.488;2023-04-22T09:18:25;98231.69;;;21.41;54.82
63009;BME280;49099;28.428;-16.488;2023-04-22T09:20:54;98244.94;;;21.47;55.09
63009;BME280;49099;28.428;-16.488;2023-04-22T09:23:22;98258.19;;;21.52;55.26
63009;BME280;49099;28.428;-16.488;2023-04-22T09:25:50;98245.53;;;21.40;55.80
63009;BME280;49099;28.428;-16.488;2023-04-22T09:28:17;98242.03;;;21.39;55.24
63009;BME280;49099;28.428;-16.488;2023-04-22T09:30:45;98256.63;;;21.51;55.55
63009;BME280;49099;28.428;-16.488;2023-04-22T09:33:13;98234.34;;;21.54;54.91
63009;BME280;49099;28.428;-16.488;2023-04-22T09:35:42;98240.66;;;21.58;53.65
63009;BME280;49099;28.428;-16.488;2023-04-22T09:38:10;98240.94;;;21.68;52.06
63009;BME280;49099;28.428;-16.488;2023-04-22T09:40:41;98247.97;;;21.85;51.63
63009;BME280;49099;28.428;-16.488;2023-04-22T09:43:09;98261.66;;;21.92;52.02
63009;BME280;49099;28.428;-16.488;2023-04-22T09:45:39;98260.78;;;21.88;52.57
63009;BME280;49099;28.428;-16.488;2023-04-22T09:48:16;98273.03;;;21.86;52.93
63009;BME280;49099;28.428;-16.488;2023-04-22T09:50:48;98263.16;;;21.78;52.91
63009;BME280;49099;28.428;-16.488;2023-04-22T09:53:20;98274.72;;;21.90;52.31
63009;BME280;49099;28.428;-16.488;2023-04-22T09:55:52;98283.09;;;22.01;51.99
63009;BME280;49099;28.428;-16.488;2023-04-22T09:58:20;98280.53;;;22.05;51.76
63009;BME280;49099;28.428;-16.488;2023-04-22T10:00:54;98291.84;;;22.22;51.20
63009;BME280;49099;28.428;-16.488;2023-04-22T10:03:23;98273.00;;;22.10;51.44
63009;BME280;49099;28.428;-16.488;2023-04-22T10:05:53;98291.09;;;22.10;51.19
63009;BME280;49099;28.428;-16.488;2023-04-22T10:08:20;98289.22;;;21.98;51.71
63009;BME280;49099;28.428;-16.488;2023-04-22T10:10:47;98292.25;;;21.96;51.85
63009;BME280;49099;28.428;-16.488;2023-04-22T10:13:15;98285.09;;;21.88;52.20
63009;BME280;49099;28.428;-16.488;2023-04-22T10:15:50;98303.50;;;21.98;51.79
63009;BME280;49099;28.428;-16.488;2023-04-22T10:18:24;98310.03;;;21.97;55.04
63009;BME280;49099;28.428;-16.488;2023-04-22T10:20:53;98307.47;;;21.89;55.70
63009;BME280;49099;28.428;-16.488;2023-04-22T10:23:23;98306.00;;;21.91;55.65
63009;BME280;49099;28.428;-16.488;2023-04-22T10:25:54;98301.94;;;21.97;56.98
63009;BME280;49099;28.428;-16.488;2023-04-22T10:28:26;98310.16;;;21.89;57.60
63009;BME280;49099;28.428;-16.488;2023-04-22T10:30:54;98295.88;;;21.88;57.17
63009;BME280;49099;28.428;-16.488;2023-04-22T10:36:12;98313.72;;;22.33;57.08
63009;BME280;49099;28.428;-16.488;2023-04-22T10:41:33;98318.66;;;22.43;58.17
63009;BME280;49099;28.428;-16.488;2023-04-22T10:44:05;98322.75;;;22.53;58.87
63009;BME280;49099;28.428;-16.488;2023-04-22T10:49:12;98334.91;;;22.75;58.60
63009;BME280;49099;28.428;-16.488;2023-04-22T10:57:04;98320.22;;;22.44;59.62
63009;BME280;49099;28.428;-16.488;2023-04-22T10:59:45;98319.50;;;22.47;59.69
63009;BME280;49099;28.428;-16.488;2023-04-22T11:02:16;98326.03;;;22.46;59.77
63009;BME280;49099;28.428;-16.488;2023-04-22T11:04:44;98324.53;;;22.33;59.93
63009;BME280;49099;28.428;-16.488;2023-04-22T11:09:59;98336.78;;;22.15;61.32
63009;BME280;49099;28.428;-16.488;2023-04-22T11:15:10;98328.00;;;22.18;61.08
63009;BME280;49099;28.428;-16.488;2023-04-22T11:17:39;98316.28;;;22.14;61.55
63009;BME280;49099;28.428;-16.488;2023-04-22T11:20:08;98303.69;;;22.06;61.34
63009;BME280;49099;28.428;-16.488;2023-04-22T11:22:37;98323.25;;;22.15;61.82
63009;BME280;49099;28.428;-16.488;2023-04-22T11:25:05;98302.63;;;21.94;60.97
63009;BME280;49099;28.428;-16.488;2023-04-22T11:27:34;98314.78;;;21.88;60.68
63009;BME280;49099;28.428;-16.488;2023-04-22T11:30:11;98316.75;;;22.04;60.82
63009;BME280;49099;28.428;-16.488;2023-04-22T11:32:44;98307.53;;;22.05;59.70
63009;BME280;49099;28.428;-16.488;2023-04-22T11:35:14;98311.81;;;21.93;60.29
63009;BME280;49099;28.428;-16.488;2023-04-22T11:37:50;98306.19;;;21.98;60.51
63009;BME280;49099;28.428;-16.488;2023-04-22T11:40:21;98296.28;;;22.03;60.49
63009;BME280;49099;28.428;-16.488;2023-04-22T11:42:57;98304.13;;;22.20;58.71
63009;BME280;49099;28.428;-16.488;2023-04-22T11:45:26;98307.69;;;22.24;59.43
63009;BME280;49099;28.428;-16.488;2023-04-22T11:47:54;98305.00;;;22.24;60.06
63009;BME280;49099;28.428;-16.488;2023-04-22T11:50:26;98293.75;;;22.22;59.99
63009;BME280;49099;28.428;-16.488;2023-04-22T11:53:10;98299.94;;;22.22;60.52
63009;BME280;49099;28.428;-16.488;2023-04-22T11:55:39;98301.66;;;22.15;61.17
63009;BME280;49099;28.428;-16.488;2023-04-22T11:58:15;98299.16;;;22.22;60.55
63009;BME280;49099;28.428;-16.488;2023-04-22T12:00:44;98301.25;;;22.29;60.53
63009;BME280;49099;28.428;-16.488;2023-04-22T12:03:16;98307.69;;;22.24;59.57
63009;BME280;49099;28.428;-16.488;2023-04-22T12:05:45;98310.19;;;22.17;59.76
63009;BME280;49099;28.428;-16.488;2023-04-22T12:08:18;98293.78;;;22.10;61.11
63009;BME280;49099;28.428;-16.488;2023-04-22T12:10:48;98300.22;;;22.05;61.81
63009;BME280;49099;28.428;-16.488;2023-04-22T12:13:31;98313.78;;;22.21;61.73
63009;BME280;49099;28.428;-16.488;2023-04-22T12:16:04;98310.69;;;22.35;61.49
63009;BME280;49099;28.428;-16.488;2023-04-22T12:18:48;98306.19;;;22.55;60.64
63009;BME280;49099;28.428;-16.488;2023-04-22T12:21:24;98293.63;;;22.62;60.11
63009;BME280;49099;28.428;-16.488;2023-04-22T12:23:56;98310.03;;;22.69;59.00
63009;BME280;49099;28.428;-16.488;2023-04-22T12:26:25;98313.47;;;22.82;57.59
63009;BME280;49099;28.428;-16.488;2023-04-22T12:28:54;98298.63;;;22.76;56.59
63009;BME280;49099;28.428;-16.488;2023-04-22T12:31:22;98305.78;;;22.84;55.47
63009;BME280;49099;28.428;-16.488;2023-04-22T12:33:50;98281.00;;;22.82;55.03
63009;BME280;49099;28.428;-16.488;2023-04-22T12:36:19;98294.25;;;22.71;57.18
63009;BME280;49099;28.428;-16.488;2023-04-22T12:38:49;98303.84;;;22.69;56.68
63009;BME280;49099;28.428;-16.488;2023-04-22T12:41:17;98269.72;;;22.64;58.96
63009;BME280;49099;28.428;-16.488;2023-04-22T12:43:44;98289.56;;;22.84;57.60
63009;BME280;49099;28.428;-16.488;2023-04-22T12:46:12;98289.38;;;22.77;59.27
63009;BME280;49099;28.428;-16.488;2023-04-22T12:48:39;98290.25;;;22.81;59.92
63009;BME280;49099;28.428;-16.488;2023-04-22T12:51:08;98273.94;;;22.77;60.38
63009;BME280;49099;28.428;-16.488;2023-04-22T12:53:35;98299.78;;;22.91;60.45
63009;BME280;49099;28.428;-16.488;2023-04-22T12:56:03;98299.19;;;22.97;59.45
63009;BME280;49099;28.428;-16.488;2023-04-22T12:58:30;98292.47;;;22.91;59.26
63009;BME280;49099;28.428;-16.488;2023-04-22T13:00:57;98299.00;;;22.90;60.15
63009;BME280;49099;28.428;-16.488;2023-04-22T13:03:25;98296.72;;;22.92;58.98
63009;BME280;49099;28.428;-16.488;2023-04-22T13:05:52;98293.00;;;22.97;60.29